CheckWX is a tool to help pilots better visualize weather data.  It is not intended as a substitute for an official pre-flight weather briefing.

07:52:03 UTC

KAJG METAR
Mount Carmel Municipal Airport
Mount Carmel, Illinois, USA
Current

17 mins ago

KAJG 230735Z AUTO 10SM CLR M01/M06 A3020 RMK AO2 T10101065
Observed
Feb-23 @ 07:35 UTC
Visibility
10 SM
Flight Rules
VFR
Cloud Levels
  • Clear skies
Temperature
-1°C / 30°F
Dewpoint
-7°C / 19°F
Humidity
64%
Altimeter
30.2" Hg
Pressure
1022.72 hPa
Previous

37 mins ago

KAJG 230715Z AUTO 10SM CLR 00/M07 A3020 RMK AO2 T10031066
Observed
Feb-23 @ 07:15 UTC
Visibility
10 SM
Flight Rules
VFR
Cloud Levels
  • Clear skies
Temperature
-0°C / 32°F
Dewpoint
-7°C / 19°F
Humidity
60%
Altimeter
30.2" Hg
Pressure
1022.72 hPa
Previous

57 mins ago

KAJG 230655Z AUTO 20003KT 10SM CLR 01/M07 A3020 RMK AO2 T00101074
Observed
Feb-23 @ 06:55 UTC
Wind
  • 200° at 3 KTS
Visibility
10 SM
Flight Rules
VFR
Cloud Levels
  • Clear skies
Temperature
C / 34°F
Dewpoint
-7°C / 19°F
Humidity
56%
Altimeter
30.2" Hg
Pressure
1022.72 hPa